Aérodrome :
LOGIN :

S'inscrire | Disclaimer

   EN    FR    IT 

 










Légende :    VFR   VFR Marginal   IFR   IFR Intensif   IFR Très Intensif
Visi : 
Plafond : 
>= 8 km
>= 3000ft
5 à 8 km
1000 à 3000 ft
1500m à 5 km
500 à 1000 ft
800 à 1500m
200 à 500 ft
< 800m
< 200 ft
Symboles :   Orages  Brouillard  Fortes neiges  Fortes précipitations  Vent > 20 kt
SIGMETs :   Divers  Orages  Givrage  Turbulence  Onde Orograph.  Cendres Volcan.







- Altitude de l'aérodrome : 204 ft
- Code IATA : AGF
- Voir les cartes d'approche


LFBA - Agen

DERNIER METAR :
  • 271300Z AUTO 28008KT 240V320 9999 FEW025 BKN038 OVC049 19/13 Q1015 TEMPO 3000 -RA BKN005

METARs EXPIRÉS :
  • 271230Z AUTO 29009KT 250V310 9999 BKN026 OVC032 18/13 Q1016 TEMPO 3000 -RA BKN005
  • 271200Z AUTO 27007KT 240V300 9999 SCT022 BKN029 OVC039 18/12 Q1016 TEMPO 3000 -RA BKN005
  • 271130Z AUTO 30007KT 250V350 9999 FEW021 OVC037 18/14 Q1016 TEMPO 3000 -RA BKN005
  • 271100Z AUTO 30008KT 260V320 9999 BKN020 OVC034 17/13 Q1016 TEMPO 3000 -RA BKN005
  • 271030Z AUTO 30007KT 260V350 9999 BKN021 OVC027 17/13 Q1016 TEMPO 3000 -RA BKN005

TAF TAF LFBA
Valide du 27 à 12h jusqu'au 27 à 21h UTC


271100Z 2712/2721 27003KT 9999 BKN015 BKN025
PROB30
TEMPO 2712/2718 3000 -RA BKN005
Pas de NOTAMs connus pour ce terrain.



MET'MAP, la Météo Aéronautique d'un coup d'oeil ! - Copyright ORBIFLY Décembre 2007 - Disclaimer

ORBIFLY MET'MAP TEAM :

Programmation & Développement : Alexandra Zaïnal
Conception & Développement : Baudouin d'Aumeries
Co-Programmation & Développement : Marc-Olivier Méhu
Soutien technique & logistique : Manuel Goepfert

Contact : metmap@orbifly.com




SOURCES & CREDITS :

   NOAA